Terminal Aerodrome Forecast
Issued by NWS

Home | Current Version | Previous Version | Text Only | Print | Product List | Glossary On
Versions: 1 2 3 4 5 6 7 8 9 10 11 12 13 14 15 16 17 18 19 20 21 22 23 24 25
927
FTUS41 KBUF 291151 AAA
TAFJHW
TAF AMD
KJHW 291151Z 2912/3012 17004KT P6SM SCT080
     FM291700 22007KT 4SM TSRA SCT040CB BKN090
     FM292300 19006KT 4SM SHRA BKN090
     FM300000 18006KT 4SM SHRA VCTS SCT045CB BKN090
     FM300200 18007KT P6SM BKN090
     FM300600 20008KT P6SM BKN035
     FM300800 21007KT P6SM BKN020
     FM301100 25006KT P6SM SCT012
      AMD LTD TO CLD VIS AND WIND=

USA.gov is the U.S. government's official web portal to all federal, state and local government web resources and services.